createdAt,value
2022-12-19T00:00:18.123Z,9.93
2022-12-19T00:03:21.056Z,10.75
2022-12-19T00:06:24.686Z,10.98
2022-12-19T00:09:28.751Z,12.00
2022-12-19T00:12:35.929Z,11.27
2022-12-19T00:15:38.736Z,11.52
2022-12-19T00:18:42.300Z,10.73
2022-12-19T00:21:45.259Z,11.20
2022-12-19T00:24:49.476Z,12.13
2022-12-19T00:27:53.692Z,11.70
2022-12-19T00:30:56.546Z,11.35
2022-12-19T00:33:59.530Z,12.77
2022-12-19T00:37:02.406Z,10.98
2022-12-19T00:40:06.180Z,10.40
2022-12-19T00:43:10.421Z,11.07
2022-12-19T00:46:15.232Z,11.10
2022-12-19T00:49:18.156Z,11.40
2022-12-19T00:52:22.880Z,11.65
2022-12-19T00:55:26.397Z,10.30
2022-12-19T00:58:35.190Z,12.13
2022-12-19T01:01:41.184Z,11.20
2022-12-19T01:04:44.585Z,11.70
2022-12-19T01:07:48.620Z,11.50
2022-12-19T01:10:51.908Z,12.52
2022-12-19T01:13:55.119Z,10.95
2022-12-19T01:16:57.922Z,12.40
2022-12-19T01:20:01.321Z,12.57
2022-12-19T01:23:05.460Z,11.50
2022-12-19T01:26:08.309Z,12.18
2022-12-19T01:29:12.503Z,12.68
2022-12-19T01:32:15.364Z,11.20
2022-12-19T01:35:21.527Z,10.70
2022-12-19T01:38:24.753Z,11.48
2022-12-19T01:41:27.639Z,11.60
2022-12-19T01:44:32.707Z,11.85
2022-12-19T01:47:40.570Z,11.40
2022-12-19T01:51:01.168Z,11.95
2022-12-19T01:54:09.332Z,13.05
2022-12-19T01:57:17.008Z,11.38
2022-12-19T02:00:21.511Z,12.90
2022-12-19T02:03:28.532Z,12.52
2022-12-19T02:06:33.900Z,12.38
2022-12-19T02:09:37.904Z,12.02
2022-12-19T02:12:44.382Z,12.80
2022-12-19T02:15:56.408Z,11.20
2022-12-19T02:19:11.103Z,12.23
2022-12-19T02:22:21.927Z,12.70
2022-12-19T02:25:56.818Z,11.85
2022-12-19T02:29:18.823Z,12.38
2022-12-19T02:32:32.875Z,11.38
2022-12-19T02:35:43.838Z,12.13
2022-12-19T02:38:54.944Z,12.15
2022-12-19T02:42:00.082Z,12.98
2022-12-19T02:45:07.012Z,12.00
2022-12-19T02:48:13.063Z,11.05
2022-12-19T02:51:19.316Z,11.95
2022-12-19T02:54:23.626Z,10.95
2022-12-19T02:57:31.112Z,12.95
2022-12-19T03:00:42.427Z,11.25
2022-12-19T03:03:59.799Z,11.77
2022-12-19T03:07:09.464Z,12.10
2022-12-19T03:10:24.224Z,12.38
2022-12-19T03:13:31.911Z,13.43
2022-12-19T03:16:36.748Z,11.75
2022-12-19T03:19:42.146Z,12.57
2022-12-19T03:22:45.042Z,12.77
2022-12-19T03:25:52.222Z,12.85
2022-12-19T03:28:59.850Z,12.40
2022-12-19T03:32:06.543Z,13.63
2022-12-19T03:35:16.771Z,11.43
2022-12-19T03:38:22.590Z,12.93
2022-12-19T03:41:41.533Z,13.63
2022-12-19T03:44:44.817Z,10.30
2022-12-19T03:47:52.063Z,11.32
2022-12-19T03:51:07.044Z,13.45
2022-12-19T03:54:14.384Z,12.90
2022-12-19T03:57:22.207Z,12.93
2022-12-19T04:00:25.971Z,13.27
2022-12-19T04:03:31.767Z,13.45
2022-12-19T04:06:36.422Z,12.02
2022-12-19T04:09:42.262Z,13.43
2022-12-19T04:12:49.872Z,12.63
2022-12-19T04:16:01.553Z,13.65
2022-12-19T04:19:11.602Z,13.80
2022-12-19T04:22:22.288Z,12.48
2022-12-19T04:25:29.900Z,14.00
2022-12-19T04:28:39.558Z,13.00
2022-12-19T04:31:43.628Z,11.82
2022-12-19T04:34:46.482Z,12.23
2022-12-19T04:37:50.739Z,12.18
2022-12-19T04:40:53.582Z,12.13
2022-12-19T04:43:56.429Z,12.73
2022-12-19T04:46:59.233Z,13.20
2022-12-19T04:50:02.228Z,12.85
2022-12-19T04:53:06.891Z,13.30
2022-12-19T04:56:11.811Z,12.60
2022-12-19T04:59:14.590Z,13.88
2022-12-19T05:02:17.510Z,12.27
2022-12-19T05:05:20.418Z,13.55
2022-12-19T05:08:24.610Z,12.73
2022-12-19T05:11:27.526Z,12.32
2022-12-19T05:14:30.382Z,12.45
2022-12-19T05:17:33.708Z,13.13
2022-12-19T05:20:37.990Z,12.52
2022-12-19T05:23:42.249Z,13.23
2022-12-19T05:26:45.290Z,13.30
2022-12-19T05:29:48.176Z,12.10
2022-12-19T05:32:51.002Z,12.27
2022-12-19T05:35:53.809Z,12.60
2022-12-19T05:38:58.035Z,12.20
2022-12-19T05:42:00.842Z,12.15
2022-12-19T05:45:03.706Z,11.38
2022-12-19T05:48:07.231Z,12.07
2022-12-19T05:51:12.317Z,12.43
2022-12-19T05:54:16.645Z,11.88
2022-12-19T05:57:19.443Z,12.32
2022-12-19T06:00:22.767Z,12.32
2022-12-19T06:03:25.646Z,11.30
2022-12-19T06:06:28.830Z,11.52
2022-12-19T06:09:32.991Z,13.05
2022-12-19T06:12:36.009Z,11.73
2022-12-19T06:15:38.805Z,12.43
2022-12-19T06:18:45.015Z,12.75
2022-12-19T06:21:48.774Z,12.02
2022-12-19T06:24:53.064Z,11.07
2022-12-19T06:27:55.869Z,12.48
2022-12-19T06:30:58.909Z,12.88
2022-12-19T06:34:02.679Z,12.07
2022-12-19T06:37:08.277Z,13.35
2022-12-19T06:40:33.891Z,10.50
2022-12-19T06:43:35.737Z,12.48
2022-12-19T06:46:38.754Z,11.18
2022-12-19T06:49:41.614Z,13.75
2022-12-19T06:52:45.211Z,11.55
2022-12-19T06:55:51.576Z,15.32
2022-12-19T06:58:54.730Z,12.20
2022-12-19T07:02:01.155Z,11.82
2022-12-19T07:05:06.579Z,12.35
2022-12-19T07:08:10.480Z,12.05
2022-12-19T07:11:14.628Z,12.57
2022-12-19T07:14:17.490Z,11.85
2022-12-19T07:17:21.111Z,12.90
2022-12-19T07:20:23.965Z,11.65
2022-12-19T07:23:26.831Z,12.23
2022-12-19T07:26:31.931Z,12.88
2022-12-19T07:29:34.784Z,13.18
2022-12-19T07:32:39.127Z,10.02
2022-12-19T07:35:42.016Z,12.73
2022-12-19T07:38:45.415Z,12.10
2022-12-19T07:41:50.066Z,12.40
2022-12-19T07:45:06.375Z,13.20
2022-12-19T07:48:10.071Z,11.65
2022-12-19T07:51:13.019Z,10.65
2022-12-19T07:54:15.863Z,12.55
2022-12-19T07:57:20.379Z,12.10
2022-12-19T08:00:23.884Z,12.23
2022-12-19T08:03:26.849Z,12.13
2022-12-19T08:06:29.868Z,13.00
2022-12-19T08:09:32.873Z,12.00
2022-12-19T08:12:37.151Z,12.25
2022-12-19T08:15:40.006Z,11.98
2022-12-19T08:18:42.940Z,12.20
2022-12-19T08:21:45.891Z,12.32
2022-12-19T08:24:48.770Z,11.77
2022-12-19T08:27:53.005Z,11.35
2022-12-19T08:30:56.009Z,13.18
2022-12-19T08:33:59.214Z,12.80
2022-12-19T08:37:02.090Z,11.60
2022-12-19T08:40:05.613Z,10.48
2022-12-19T08:43:09.793Z,12.57
2022-12-19T08:46:12.657Z,12.32
2022-12-19T08:49:15.697Z,11.43
2022-12-19T08:52:18.762Z,12.55
2022-12-19T08:55:21.583Z,12.00
2022-12-19T08:58:26.749Z,13.18
2022-12-19T09:01:29.867Z,12.45
2022-12-19T09:05:58.153Z,12.20
2022-12-19T09:07:55.624Z,12.43
2022-12-19T09:10:59.853Z,13.70
2022-12-19T09:14:05.046Z,13.20
2022-12-19T09:17:08.139Z,11.68
2022-12-19T09:20:12.198Z,11.98
2022-12-19T09:23:15.086Z,13.32
2022-12-19T09:26:18.118Z,12.20
2022-12-19T09:29:22.555Z,11.05
2022-12-19T09:32:25.467Z,12.20
2022-12-19T09:35:30.415Z,12.65
2022-12-19T09:38:38.215Z,11.90
2022-12-19T09:42:02.485Z,11.30
2022-12-19T09:45:31.263Z,13.00
2022-12-19T09:48:35.074Z,11.70
2022-12-19T09:51:44.488Z,12.90
2022-12-19T09:54:52.491Z,11.13
2022-12-19T09:58:05.710Z,14.25
2022-12-19T10:01:20.049Z,12.77
2022-12-19T10:04:26.847Z,12.75
2022-12-19T10:07:59.601Z,12.15
2022-12-19T10:12:42.573Z,10.85
2022-12-19T10:14:41.779Z,12.52
2022-12-19T10:18:29.588Z,12.07
2022-12-19T10:22:16.501Z,12.27
2022-12-19T10:25:23.937Z,13.82
2022-12-19T10:28:49.530Z,11.73
2022-12-19T10:31:59.727Z,13.40
2022-12-19T10:35:02.690Z,12.38
2022-12-19T10:38:22.496Z,10.63
2022-12-19T10:41:27.975Z,12.63
2022-12-19T10:44:33.353Z,13.48
2022-12-19T10:47:37.118Z,11.20
2022-12-19T10:50:39.971Z,11.75
2022-12-19T10:53:54.996Z,11.13
2022-12-19T10:57:23.966Z,11.73
2022-12-19T11:00:27.632Z,13.73
2022-12-19T11:03:36.529Z,12.75
2022-12-19T11:06:52.440Z,10.55
2022-12-19T11:10:42.675Z,13.15
2022-12-19T11:18:31.073Z,12.43
2022-12-19T11:23:21.221Z,11.10
2022-12-19T11:29:25.336Z,13.13
2022-12-19T11:29:54.650Z,10.65
2022-12-19T11:30:49.024Z,13.15
2022-12-19T11:33:55.547Z,11.88
2022-12-19T11:37:05.338Z,12.98
2022-12-19T11:40:16.408Z,11.88
2022-12-19T11:43:43.793Z,11.18
2022-12-19T11:46:53.631Z,12.57
2022-12-19T11:50:02.492Z,11.55
2022-12-19T11:53:19.071Z,12.35
2022-12-19T11:56:25.070Z,11.40
2022-12-19T11:59:32.953Z,12.18
2022-12-19T12:03:02.744Z,12.25
2022-12-19T12:06:12.866Z,10.90
2022-12-19T12:13:17.445Z,10.57
2022-12-19T12:22:24.493Z,9.98
2022-12-19T12:28:53.397Z,12.18
2022-12-19T12:31:10.130Z,10.57
2022-12-19T12:31:45.497Z,10.00
2022-12-19T12:31:52.738Z,11.88
2022-12-19T12:31:55.326Z,10.73
2022-12-19T12:35:32.683Z,10.63
2022-12-19T12:38:27.063Z,11.85
2022-12-19T12:42:01.663Z,10.95
2022-12-19T12:45:19.310Z,11.63
2022-12-19T12:48:27.485Z,9.98
2022-12-19T12:51:35.333Z,11.55
2022-12-19T12:54:43.124Z,11.25
2022-12-19T12:57:45.999Z,11.65
2022-12-19T13:01:09.742Z,9.48
2022-12-19T13:04:25.313Z,11.75
2022-12-19T13:07:43.559Z,9.13
2022-12-19T13:10:54.496Z,11.30
2022-12-19T13:13:58.373Z,11.80
2022-12-19T13:17:02.283Z,11.48
2022-12-19T13:20:41.571Z,9.25
2022-12-19T13:23:49.429Z,11.82
2022-12-19T13:26:52.815Z,10.43
2022-12-19T13:30:03.806Z,9.63
2022-12-19T13:33:10.133Z,11.63
2022-12-19T13:39:49.871Z,11.80
2022-12-19T13:40:30.614Z,9.25
2022-12-19T13:43:48.806Z,12.65
2022-12-19T13:46:51.808Z,11.18
2022-12-19T13:49:55.802Z,10.75
2022-12-19T13:52:58.835Z,11.73
2022-12-19T13:56:05.047Z,11.10
2022-12-19T13:59:08.412Z,10.27
2022-12-19T14:02:19.639Z,9.52
2022-12-19T14:05:30.623Z,10.27
2022-12-19T14:10:02.821Z,9.57
2022-12-19T14:13:57.508Z,9.75
2022-12-19T14:16:00.522Z,9.35
2022-12-19T14:19:03.682Z,9.10
2022-12-19T14:22:25.881Z,11.57
2022-12-19T14:28:17.528Z,10.02
2022-12-19T14:29:07.509Z,9.10
2022-12-19T14:33:47.268Z,9.13
2022-12-19T14:36:06.077Z,8.93
2022-12-19T14:39:24.399Z,10.52
2022-12-19T14:43:58.792Z,11.07
2022-12-19T14:54:11.035Z,10.25
2022-12-19T14:54:15.968Z,10.45
2022-12-19T14:54:27.812Z,10.77
2022-12-19T14:57:01.531Z,8.77
2022-12-19T15:01:10.369Z,10.20
2022-12-19T15:04:52.466Z,10.63
2022-12-19T15:07:20.425Z,10.52
2022-12-19T15:11:04.352Z,9.88
2022-12-19T15:14:58.694Z,11.23
2022-12-19T15:17:22.026Z,8.35
2022-12-19T15:20:26.243Z,7.80
2022-12-19T15:23:30.475Z,9.38
2022-12-19T15:26:35.736Z,9.07
2022-12-19T15:29:38.655Z,9.52
2022-12-19T15:32:41.686Z,8.80
2022-12-19T15:35:46.073Z,9.82
2022-12-19T15:38:48.937Z,9.57
2022-12-19T15:41:54.673Z,9.23
2022-12-19T15:44:59.910Z,8.63
2022-12-19T15:48:02.810Z,8.15
2022-12-19T15:51:07.312Z,8.85
2022-12-19T15:54:46.442Z,9.40
2022-12-19T15:57:36.229Z,10.30
2022-12-19T16:00:40.288Z,8.15
2022-12-19T16:03:43.335Z,8.73
2022-12-19T16:06:47.771Z,8.77
2022-12-19T16:09:50.942Z,8.23
2022-12-19T16:12:57.648Z,9.65
2022-12-19T16:16:00.728Z,10.23
2022-12-19T16:19:03.669Z,8.57
2022-12-19T16:22:17.599Z,9.75
2022-12-19T16:25:20.921Z,9.07
2022-12-19T16:28:29.834Z,7.75
2022-12-19T16:31:32.795Z,9.32
2022-12-19T16:34:35.701Z,8.63
2022-12-19T16:37:39.876Z,8.30
2022-12-19T16:40:43.043Z,9.75
2022-12-19T16:43:46.654Z,8.10
2022-12-19T16:46:51.720Z,7.93
2022-12-19T16:49:54.759Z,8.35
2022-12-19T16:52:59.115Z,9.48
2022-12-19T16:56:02.336Z,7.05
2022-12-19T16:59:12.228Z,8.65
2022-12-19T17:02:44.266Z,8.25
2022-12-19T17:05:47.144Z,7.60
2022-12-19T17:08:51.361Z,7.60
2022-12-19T17:11:57.028Z,7.25
2022-12-19T17:15:00.364Z,8.90
2022-12-19T17:18:05.542Z,8.57
2022-12-19T17:21:08.786Z,8.30
2022-12-19T17:24:14.612Z,8.63
2022-12-19T17:27:19.189Z,6.30
2022-12-19T17:30:23.116Z,9.05
2022-12-19T17:33:33.240Z,8.00
2022-12-19T17:36:37.905Z,8.63
2022-12-19T17:39:42.834Z,8.25
2022-12-19T17:42:45.737Z,8.35
2022-12-19T17:45:48.977Z,7.47
2022-12-19T17:48:53.637Z,7.70
2022-12-19T17:51:57.155Z,8.30
2022-12-19T17:55:01.402Z,7.85
2022-12-19T17:58:04.291Z,7.70
2022-12-19T18:01:13.891Z,7.00
2022-12-19T18:04:19.469Z,7.82
2022-12-19T18:07:22.612Z,7.32
2022-12-19T18:10:29.957Z,7.28
2022-12-19T18:13:32.931Z,6.20
2022-12-19T18:16:35.887Z,7.13
2022-12-19T18:19:39.339Z,5.95
2022-12-19T18:22:42.732Z,7.28
2022-12-19T18:25:48.007Z,6.90
2022-12-19T18:28:50.944Z,6.88
2022-12-19T18:31:53.847Z,6.72
2022-12-19T18:34:56.849Z,8.15
2022-12-19T18:38:01.805Z,7.03
2022-12-19T18:41:06.234Z,6.78
2022-12-19T18:44:09.639Z,7.95
2022-12-19T18:47:21.212Z,7.57
2022-12-19T18:50:27.257Z,7.70
2022-12-19T18:53:35.292Z,7.13
2022-12-19T18:56:40.360Z,7.00
2022-12-19T18:59:43.175Z,7.82
2022-12-19T19:02:49.896Z,7.80
2022-12-19T19:05:52.883Z,6.60
2022-12-19T19:08:56.878Z,7.20
2022-12-19T19:12:20.760Z,7.65
2022-12-19T19:15:27.748Z,7.65
2022-12-19T19:18:34.866Z,6.97
2022-12-19T19:21:38.560Z,6.55
2022-12-19T19:24:41.379Z,6.57
2022-12-19T19:27:45.898Z,6.90
2022-12-19T19:30:48.903Z,6.90
2022-12-19T19:33:56.890Z,6.65
2022-12-19T19:37:03.668Z,6.65
2022-12-19T19:40:07.983Z,7.22
2022-12-19T19:43:12.202Z,6.72
2022-12-19T19:46:15.069Z,6.28
2022-12-19T19:49:17.964Z,7.07
2022-12-19T19:52:20.777Z,6.95
2022-12-19T19:55:23.725Z,6.47
2022-12-19T19:58:29.049Z,6.50
2022-12-19T20:01:32.158Z,6.20
2022-12-19T20:04:36.177Z,6.00
2022-12-19T20:07:39.161Z,7.47
2022-12-19T20:10:42.087Z,6.88
2022-12-19T20:13:46.344Z,6.63
2022-12-19T20:16:49.891Z,7.68
2022-12-19T20:19:52.843Z,5.65
2022-12-19T20:22:55.692Z,6.20
2022-12-19T20:26:01.707Z,6.18
2022-12-19T20:29:06.459Z,6.22
2022-12-19T20:32:10.065Z,5.03
2022-12-19T20:35:15.138Z,5.47
2022-12-19T20:38:18.099Z,6.40
2022-12-19T20:41:20.982Z,6.10
2022-12-19T20:44:25.481Z,6.90
2022-12-19T20:47:29.409Z,5.80
2022-12-19T20:50:32.292Z,6.22
2022-12-19T20:53:36.639Z,6.72
2022-12-19T20:56:39.675Z,6.28
2022-12-19T20:59:43.892Z,5.55
2022-12-19T21:03:25.740Z,5.90
2022-12-19T21:06:11.887Z,5.50
2022-12-19T21:09:14.672Z,5.05
2022-12-19T21:12:17.625Z,5.28
2022-12-19T21:15:21.838Z,5.97
2022-12-19T21:18:25.659Z,5.60
2022-12-19T21:21:28.769Z,6.57
2022-12-19T21:24:32.973Z,5.72
2022-12-19T21:27:35.846Z,5.75
2022-12-19T21:30:40.135Z,7.20
2022-12-19T21:33:43.072Z,5.97
2022-12-19T21:36:45.877Z,6.13
2022-12-19T21:39:49.082Z,6.93
2022-12-19T21:42:52.065Z,5.93
2022-12-19T21:46:06.742Z,7.35
2022-12-19T21:49:10.640Z,5.55
2022-12-19T21:52:13.496Z,5.43
2022-12-19T21:55:16.320Z,5.88
2022-12-19T21:58:19.229Z,5.05
2022-12-19T22:01:24.218Z,5.38
2022-12-19T22:04:27.907Z,5.78
2022-12-19T22:07:30.753Z,5.80
2022-12-19T22:10:33.571Z,5.47
2022-12-19T22:13:36.430Z,7.43
2022-12-19T22:16:41.008Z,5.15
2022-12-19T22:19:43.962Z,5.38
2022-12-19T22:22:46.732Z,5.03
2022-12-19T22:25:49.620Z,6.10
2022-12-19T22:28:54.915Z,5.70
2022-12-19T22:31:59.181Z,5.68
2022-12-19T22:35:02.048Z,5.43
2022-12-19T22:38:04.856Z,5.38
2022-12-19T22:41:08.183Z,5.93
2022-12-19T22:44:17.213Z,4.97
2022-12-19T22:47:21.652Z,5.13
2022-12-19T22:50:24.626Z,5.07
2022-12-19T22:53:27.440Z,5.38
2022-12-19T22:56:32.580Z,4.93
2022-12-19T22:59:35.719Z,5.35
2022-12-19T23:02:41.466Z,5.13
2022-12-19T23:05:48.562Z,6.18
2022-12-19T23:08:55.146Z,5.53
2022-12-19T23:11:58.004Z,4.95
2022-12-19T23:15:00.941Z,4.78
2022-12-19T23:18:05.537Z,4.88
2022-12-19T23:21:10.528Z,4.95
2022-12-19T23:24:13.545Z,5.22
2022-12-19T23:27:16.372Z,5.03
2022-12-19T23:30:19.604Z,5.03
2022-12-19T23:33:23.784Z,5.25
2022-12-19T23:37:08.400Z,5.45
2022-12-19T23:39:49.987Z,5.55
2022-12-19T23:42:52.863Z,5.40
2022-12-19T23:45:56.061Z,4.93
2022-12-19T23:49:00.421Z,4.38
2022-12-19T23:52:03.467Z,5.10
2022-12-19T23:55:07.442Z,4.55
2022-12-19T23:58:14.685Z,4.65
